createdAt,value
2017-02-05T00:00:23.695Z,6.36
2017-02-05T00:01:23.732Z,6.32
2017-02-05T00:02:23.702Z,6.29
2017-02-05T00:03:23.647Z,6.3
2017-02-05T00:04:23.624Z,6.29
2017-02-05T00:05:23.603Z,6.38
2017-02-05T00:06:23.585Z,6.33
2017-02-05T00:07:23.567Z,6.32
2017-02-05T00:08:23.547Z,6.32
2017-02-05T00:09:23.530Z,6.3
2017-02-05T00:10:23.512Z,6.36
2017-02-05T00:11:23.515Z,6.35
2017-02-05T00:12:23.490Z,6.28
2017-02-05T00:13:23.670Z,6.26
2017-02-05T00:14:23.465Z,6.29
2017-02-05T00:15:23.419Z,6.3
2017-02-05T00:16:23.403Z,6.4
2017-02-05T00:17:23.415Z,6.35
2017-02-05T00:18:23.385Z,6.26
2017-02-05T00:19:23.363Z,6.33
2017-02-05T00:20:22.956Z,6.28
2017-02-05T00:21:23.317Z,6.38
2017-02-05T00:22:23.299Z,6.33
2017-02-05T00:23:23.279Z,6.36
2017-02-05T00:24:23.267Z,6.33
2017-02-05T00:25:23.244Z,6.32
2017-02-05T00:26:23.227Z,6.35
2017-02-05T00:27:23.205Z,6.33
2017-02-05T00:28:23.205Z,6.32
2017-02-05T00:29:23.182Z,6.36
2017-02-05T00:30:22.758Z,6.36
2017-02-05T00:31:23.138Z,6.36
2017-02-05T00:32:23.117Z,6.4
2017-02-05T00:33:23.102Z,6.4
2017-02-05T00:34:23.084Z,6.43
2017-02-05T00:35:23.064Z,6.44
2017-02-05T00:36:23.067Z,6.35
2017-02-05T00:37:22.627Z,6.43
2017-02-05T00:38:23.007Z,6.35
2017-02-05T00:39:22.988Z,6.3
2017-02-05T00:40:22.579Z,6.44
2017-02-05T00:41:22.950Z,6.35
2017-02-05T00:42:22.934Z,6.44
2017-02-05T00:43:22.924Z,6.48
2017-02-05T00:44:22.908Z,6.46
2017-02-05T00:45:22.882Z,6.47
2017-02-05T00:46:22.864Z,6.5
2017-02-05T00:47:22.844Z,6.54
2017-02-05T00:48:22.823Z,6.56
2017-02-05T00:49:22.818Z,6.53
2017-02-05T00:50:22.792Z,6.54
2017-02-05T00:51:22.775Z,6.51
2017-02-05T00:52:22.360Z,6.59
2017-02-05T00:53:22.737Z,6.54
2017-02-05T00:54:22.717Z,6.54
2017-02-05T00:55:22.703Z,6.51
2017-02-05T00:56:22.688Z,6.56
2017-02-05T00:57:22.682Z,6.62
2017-02-05T00:58:22.657Z,6.54
2017-02-05T00:59:22.670Z,6.56
2017-02-05T01:00:22.652Z,6.51
2017-02-05T01:01:22.596Z,6.56
2017-02-05T01:02:22.620Z,6.54
2017-02-05T01:03:22.557Z,6.54
2017-02-05T01:04:22.533Z,6.54
2017-02-05T01:05:22.523Z,6.5
2017-02-05T01:06:22.501Z,6.51
2017-02-05T01:07:22.480Z,6.51
2017-02-05T01:08:22.464Z,6.5
2017-02-05T01:09:22.441Z,6.48
2017-02-05T01:10:22.427Z,6.48
2017-02-05T01:11:22.407Z,6.51
2017-02-05T01:12:22.454Z,6.47
2017-02-05T01:13:22.365Z,6.5
2017-02-05T01:14:22.357Z,6.43
2017-02-05T01:15:22.335Z,6.33
2017-02-05T01:16:22.315Z,6.46
2017-02-05T01:17:22.296Z,6.32
2017-02-05T01:18:22.279Z,6.4
2017-02-05T01:19:21.863Z,6.35
2017-02-05T01:20:22.242Z,6.33
2017-02-05T01:21:22.219Z,6.38
2017-02-05T01:22:21.804Z,6.43
2017-02-05T01:23:22.185Z,6.41
2017-02-05T01:24:22.167Z,6.3
2017-02-05T01:25:22.147Z,6.33
2017-02-05T01:26:22.127Z,6.33
2017-02-05T01:27:22.108Z,6.32
2017-02-05T01:28:22.094Z,6.33
2017-02-05T01:29:22.072Z,6.32
2017-02-05T01:30:22.053Z,6.35
2017-02-05T01:31:22.037Z,6.29
2017-02-05T01:32:22.014Z,6.32
2017-02-05T01:33:21.998Z,6.32
2017-02-05T01:34:21.976Z,6.29
2017-02-05T01:35:21.951Z,6.3
2017-02-05T01:36:21.933Z,6.25
2017-02-05T01:37:21.926Z,6.29
2017-02-05T01:38:21.900Z,6.28
2017-02-05T01:39:21.894Z,6.21
2017-02-05T01:40:21.861Z,6.16
2017-02-05T01:41:21.838Z,6.22
2017-02-05T01:42:21.827Z,6.26
2017-02-05T01:43:21.805Z,6.22
2017-02-05T01:44:21.782Z,6.18
2017-02-05T01:45:21.763Z,6.22
2017-02-05T01:46:21.744Z,6.19
2017-02-05T01:47:21.732Z,6.19
2017-02-05T01:48:21.736Z,6.19
2017-02-05T01:49:21.702Z,6.11
2017-02-05T01:50:21.680Z,6.22
2017-02-05T01:51:21.657Z,6.16
2017-02-05T01:52:21.637Z,6.18
2017-02-05T01:53:21.612Z,6.09
2017-02-05T01:54:21.604Z,6.1
2017-02-05T01:55:21.581Z,6.13
2017-02-05T01:56:21.159Z,6.09
2017-02-05T01:57:21.536Z,6.14
2017-02-05T01:58:21.520Z,6.06
2017-02-05T01:59:21.499Z,6.13
2017-02-05T02:00:21.476Z,6.09
2017-02-05T02:01:21.459Z,6.06
2017-02-05T02:02:21.436Z,6.06
2017-02-05T02:03:21.421Z,6.11
2017-02-05T02:04:21.402Z,6.11
2017-02-05T02:05:21.382Z,6.14
2017-02-05T02:06:20.970Z,6.06
2017-02-05T02:07:21.348Z,6.07
2017-02-05T02:08:21.323Z,6.1
2017-02-05T02:09:21.306Z,6.04
2017-02-05T02:10:20.896Z,6.06
2017-02-05T02:11:20.875Z,6.06
2017-02-05T02:12:21.250Z,6.06
2017-02-05T02:13:21.435Z,6.09
2017-02-05T02:14:21.210Z,6.07
2017-02-05T02:15:21.189Z,6.09
2017-02-05T02:16:21.167Z,6.09
2017-02-05T02:17:21.154Z,6.09
2017-02-05T02:18:21.135Z,6.09
2017-02-05T02:19:20.720Z,6.07
2017-02-05T02:20:21.093Z,6.06
2017-02-05T02:21:21.078Z,6.06
2017-02-05T02:22:21.058Z,6.06
2017-02-05T02:23:20.640Z,6.06
2017-02-05T02:24:21.021Z,5.98
2017-02-05T02:25:21.001Z,6
2017-02-05T02:26:21.012Z,5.96
2017-02-05T02:27:20.964Z,6.04
2017-02-05T02:28:20.945Z,6
2017-02-05T02:29:20.924Z,6.04
2017-02-05T02:30:20.908Z,6
2017-02-05T02:31:20.887Z,6.03
2017-02-05T02:32:20.864Z,6
2017-02-05T02:33:20.850Z,6
2017-02-05T02:34:20.828Z,5.95
2017-02-05T02:35:20.807Z,5.98
2017-02-05T02:36:20.794Z,6
2017-02-05T02:37:20.770Z,5.93
2017-02-05T02:38:20.758Z,5.91
2017-02-05T02:39:20.736Z,5.93
2017-02-05T02:40:20.712Z,5.88
2017-02-05T02:41:20.696Z,5.91
2017-02-05T02:42:20.677Z,5.98
2017-02-05T02:43:20.660Z,5.93
2017-02-05T02:44:20.636Z,6.01
2017-02-05T02:45:20.620Z,6.03
2017-02-05T02:46:20.599Z,5.98
2017-02-05T02:47:20.587Z,5.91
2017-02-05T02:48:20.560Z,5.95
2017-02-05T02:49:20.545Z,5.89
2017-02-05T02:50:20.523Z,6.03
2017-02-05T02:51:20.498Z,6.09
2017-02-05T02:52:20.487Z,5.88
2017-02-05T02:53:20.466Z,5.86
2017-02-05T02:54:20.443Z,5.98
2017-02-05T02:55:20.427Z,5.91
2017-02-05T02:56:20.409Z,5.86
2017-02-05T02:57:20.389Z,6
2017-02-05T02:58:20.373Z,6.09
2017-02-05T02:59:20.352Z,5.92
2017-02-05T03:00:20.332Z,5.96
2017-02-05T03:01:20.310Z,6.04
2017-02-05T03:02:20.299Z,5.91
2017-02-05T03:03:20.279Z,5.92
2017-02-05T03:04:20.255Z,5.95
2017-02-05T03:05:20.243Z,5.95
2017-02-05T03:06:19.824Z,5.96
2017-02-05T03:07:20.197Z,5.95
2017-02-05T03:08:20.185Z,5.92
2017-02-05T03:09:20.163Z,6.01
2017-02-05T03:10:20.197Z,5.98
2017-02-05T03:11:20.142Z,5.95
2017-02-05T03:12:20.111Z,6
2017-02-05T03:13:20.082Z,5.92
2017-02-05T03:14:20.065Z,5.93
2017-02-05T03:15:20.049Z,6.03
2017-02-05T03:16:20.029Z,6.01
2017-02-05T03:17:20.006Z,5.92
2017-02-05T03:18:19.987Z,5.95
2017-02-05T03:19:19.970Z,6
2017-02-05T03:20:19.949Z,5.91
2017-02-05T03:21:19.144Z,6.09
2017-02-05T03:22:19.913Z,5.93
2017-02-05T03:23:19.893Z,5.96
2017-02-05T03:24:19.872Z,5.92
2017-02-05T03:25:19.852Z,5.89
2017-02-05T03:26:19.839Z,5.92
2017-02-05T03:27:19.826Z,5.92
2017-02-05T03:28:19.406Z,5.91
2017-02-05T03:29:19.779Z,5.86
2017-02-05T03:30:19.756Z,5.96
2017-02-05T03:31:19.740Z,5.95
2017-02-05T03:32:19.326Z,5.98
2017-02-05T03:33:19.728Z,6.04
2017-02-05T03:34:19.676Z,5.93
2017-02-05T03:35:19.664Z,5.91
2017-02-05T03:36:19.249Z,5.93
2017-02-05T03:37:19.623Z,5.89
2017-02-05T03:38:19.642Z,6
2017-02-05T03:39:19.605Z,5.83
2017-02-05T03:40:19.568Z,5.89
2017-02-05T03:41:19.542Z,5.95
2017-02-05T03:42:19.537Z,5.92
2017-02-05T03:43:19.506Z,5.93
2017-02-05T03:44:19.488Z,5.83
2017-02-05T03:45:19.464Z,5.93
2017-02-05T03:46:19.451Z,5.89
2017-02-05T03:47:19.427Z,5.92
2017-02-05T03:48:19.408Z,5.88
2017-02-05T03:49:19.388Z,5.88
2017-02-05T03:50:19.371Z,5.86
2017-02-05T03:51:18.952Z,5.86
2017-02-05T03:52:18.935Z,5.89
2017-02-05T03:53:19.312Z,5.85
2017-02-05T03:54:19.292Z,5.85
2017-02-05T03:55:18.483Z,5.89
2017-02-05T03:56:19.252Z,5.92
2017-02-05T03:57:19.237Z,5.92
2017-02-05T03:58:19.216Z,5.89
2017-02-05T03:59:19.197Z,5.83
2017-02-05T04:00:19.183Z,5.85
2017-02-05T04:01:19.198Z,5.88
2017-02-05T04:02:19.141Z,5.86
2017-02-05T04:03:18.722Z,5.89
2017-02-05T04:04:18.703Z,5.88
2017-02-05T04:05:19.085Z,5.83
2017-02-05T04:06:19.063Z,5.83
2017-02-05T04:07:18.647Z,5.82
2017-02-05T04:08:18.627Z,5.86
2017-02-05T04:09:19.007Z,5.88
2017-02-05T04:10:19.030Z,5.93
2017-02-05T04:11:18.969Z,5.88
2017-02-05T04:12:18.947Z,5.82
2017-02-05T04:13:19.127Z,5.93
2017-02-05T04:14:18.905Z,5.91
2017-02-05T04:15:18.887Z,5.88
2017-02-05T04:16:18.869Z,5.85
2017-02-05T04:17:18.853Z,5.95
2017-02-05T04:18:18.830Z,5.89
2017-02-05T04:19:18.816Z,5.95
2017-02-05T04:20:18.396Z,5.96
2017-02-05T04:21:18.771Z,5.95
2017-02-05T04:22:18.752Z,5.93
2017-02-05T04:23:18.737Z,5.93
2017-02-05T04:24:18.718Z,6
2017-02-05T04:25:18.693Z,5.96
2017-02-05T04:26:18.680Z,6
2017-02-05T04:27:18.659Z,5.89
2017-02-05T04:28:18.250Z,5.93
2017-02-05T04:29:18.620Z,5.91
2017-02-05T04:30:18.601Z,5.92
2017-02-05T04:31:18.200Z,6.03
2017-02-05T04:32:18.586Z,6.01
2017-02-05T04:33:18.563Z,6
2017-02-05T04:34:18.525Z,5.86
2017-02-05T04:35:18.110Z,5.98
2017-02-05T04:36:18.486Z,5.91
2017-02-05T04:37:18.468Z,5.91
2017-02-05T04:38:18.053Z,5.93
2017-02-05T04:39:18.429Z,5.98
2017-02-05T04:40:18.411Z,5.88
2017-02-05T04:41:18.392Z,5.93
2017-02-05T04:42:18.368Z,5.86
2017-02-05T04:43:17.966Z,6.01
2017-02-05T04:44:18.333Z,5.93
2017-02-05T04:45:18.313Z,5.98
2017-02-05T04:46:18.297Z,6.03
2017-02-05T04:47:18.285Z,5.89
2017-02-05T04:48:18.263Z,5.92
2017-02-05T04:49:18.238Z,6.01
2017-02-05T04:50:18.222Z,5.91
2017-02-05T04:51:18.205Z,5.96
2017-02-05T04:52:18.182Z,5.93
2017-02-05T04:53:18.162Z,5.96
2017-02-05T04:54:18.144Z,5.92
2017-02-05T04:55:17.732Z,5.93
2017-02-05T04:56:18.142Z,5.92
2017-02-05T04:57:18.092Z,5.89
2017-02-05T04:58:18.103Z,5.92
2017-02-05T04:59:17.654Z,5.95
2017-02-05T05:00:18.037Z,5.86
2017-02-05T05:01:18.012Z,5.89
2017-02-05T05:02:17.995Z,5.92
2017-02-05T05:03:18.013Z,5.89
2017-02-05T05:04:17.954Z,5.91
2017-02-05T05:05:17.935Z,6.01
2017-02-05T05:06:17.909Z,5.91
2017-02-05T05:07:17.892Z,5.96
2017-02-05T05:08:17.873Z,5.98
2017-02-05T05:09:17.856Z,5.95
2017-02-05T05:10:17.846Z,5.88
2017-02-05T05:11:17.817Z,5.95
2017-02-05T05:12:17.804Z,5.95
2017-02-05T05:13:17.781Z,5.95
2017-02-05T05:14:17.763Z,5.85
2017-02-05T05:15:17.345Z,5.91
2017-02-05T05:16:17.730Z,5.93
2017-02-05T05:17:17.708Z,5.88
2017-02-05T05:18:17.288Z,5.95
2017-02-05T05:19:17.663Z,5.88
2017-02-05T05:20:17.641Z,5.88
2017-02-05T05:21:17.230Z,5.95
2017-02-05T05:22:17.608Z,5.89
2017-02-05T05:23:17.588Z,5.86
2017-02-05T05:24:17.566Z,5.88
2017-02-05T05:25:17.546Z,5.88
2017-02-05T05:26:17.528Z,5.91
2017-02-05T05:27:17.503Z,5.88
2017-02-05T05:28:17.490Z,5.93
2017-02-05T05:29:17.471Z,5.89
2017-02-05T05:30:17.455Z,5.85
2017-02-05T05:31:17.432Z,5.88
2017-02-05T05:32:17.415Z,5.86
2017-02-05T05:33:17.394Z,5.88
2017-02-05T05:34:17.379Z,5.92
2017-02-05T05:35:17.355Z,5.83
2017-02-05T05:36:17.342Z,5.82
2017-02-05T05:37:17.318Z,5.92
2017-02-05T05:38:16.905Z,5.91
2017-02-05T05:39:16.886Z,5.92
2017-02-05T05:40:17.268Z,5.88
2017-02-05T05:41:17.240Z,5.82
2017-02-05T05:42:16.832Z,5.92
2017-02-05T05:43:17.211Z,5.92
2017-02-05T05:44:16.786Z,5.89
2017-02-05T05:45:17.167Z,5.88
2017-02-05T05:46:16.750Z,5.93
2017-02-05T05:47:16.734Z,5.82
2017-02-05T05:48:17.110Z,5.81
2017-02-05T05:49:16.700Z,5.93
2017-02-05T05:50:16.315Z,5.88
2017-02-05T05:51:17.089Z,5.91
2017-02-05T05:52:16.671Z,5.92
2017-02-05T05:53:16.666Z,5.86
2017-02-05T05:54:17.042Z,5.91
2017-02-05T05:55:16.977Z,5.88
2017-02-05T05:56:16.959Z,5.92
2017-02-05T05:57:16.933Z,5.92
2017-02-05T05:58:16.916Z,5.88
2017-02-05T05:59:16.909Z,5.91
2017-02-05T06:00:16.893Z,5.92
2017-02-05T06:01:16.867Z,5.83
2017-02-05T06:02:16.493Z,5.93
2017-02-05T06:03:16.427Z,5.88
2017-02-05T06:04:16.807Z,5.88
2017-02-05T06:05:16.786Z,5.89
2017-02-05T06:06:16.764Z,5.88
2017-02-05T06:07:16.744Z,5.96
2017-02-05T06:08:16.725Z,5.92
2017-02-05T06:09:16.706Z,5.88
2017-02-05T06:10:16.690Z,5.89
2017-02-05T06:11:16.668Z,6
2017-02-05T06:12:16.653Z,5.89
2017-02-05T06:13:16.835Z,5.92
2017-02-05T06:14:16.618Z,5.88
2017-02-05T06:15:16.595Z,5.82
2017-02-05T06:16:16.578Z,5.88
2017-02-05T06:17:16.558Z,5.86
2017-02-05T06:18:16.537Z,5.86
2017-02-05T06:19:16.519Z,5.85
2017-02-05T06:20:16.103Z,5.88
2017-02-05T06:21:16.088Z,5.83
2017-02-05T06:22:16.461Z,5.91
2017-02-05T06:23:16.445Z,5.88
2017-02-05T06:24:16.025Z,5.85
2017-02-05T06:25:16.054Z,5.81
2017-02-05T06:26:16.388Z,5.85
2017-02-05T06:27:15.972Z,5.86
2017-02-05T06:28:16.346Z,5.85
2017-02-05T06:29:16.338Z,5.88
2017-02-05T06:30:16.312Z,5.83
2017-02-05T06:31:16.292Z,5.86
2017-02-05T06:32:16.270Z,5.89
2017-02-05T06:33:16.258Z,5.89
2017-02-05T06:34:16.236Z,5.85
2017-02-05T06:35:16.217Z,5.86
2017-02-05T06:36:16.200Z,5.91
2017-02-05T06:37:16.174Z,5.88
2017-02-05T06:38:16.158Z,5.86
2017-02-05T06:39:16.140Z,5.82
2017-02-05T06:40:16.124Z,5.85
2017-02-05T06:41:16.103Z,5.88
2017-02-05T06:42:16.083Z,5.89
2017-02-05T06:43:16.065Z,5.89
2017-02-05T06:44:16.042Z,5.86
2017-02-05T06:45:16.025Z,5.92
2017-02-05T06:46:15.214Z,5.86
2017-02-05T06:47:15.984Z,5.78
2017-02-05T06:48:15.972Z,5.88
2017-02-05T06:49:15.949Z,5.85
2017-02-05T06:50:15.930Z,5.86
2017-02-05T06:51:15.911Z,5.86
2017-02-05T06:52:15.896Z,5.81
2017-02-05T06:53:15.877Z,5.86
2017-02-05T06:54:15.898Z,5.83
2017-02-05T06:55:15.836Z,5.82
2017-02-05T06:56:15.818Z,5.75
2017-02-05T06:57:15.804Z,5.88
2017-02-05T06:58:15.784Z,5.86
2017-02-05T06:59:15.777Z,5.83
2017-02-05T07:00:15.736Z,5.82
2017-02-05T07:01:15.326Z,5.88
2017-02-05T07:02:15.309Z,5.82
2017-02-05T07:03:15.683Z,5.86
2017-02-05T07:04:15.666Z,5.86
2017-02-05T07:05:15.652Z,5.77
2017-02-05T07:06:15.633Z,5.86
2017-02-05T07:07:15.611Z,5.85
2017-02-05T07:08:15.198Z,5.82
2017-02-05T07:09:15.571Z,5.83
2017-02-05T07:10:15.560Z,5.86
2017-02-05T07:11:15.136Z,5.88
2017-02-05T07:12:15.123Z,5.88
2017-02-05T07:13:15.499Z,5.82
2017-02-05T07:14:15.553Z,5.89
2017-02-05T07:15:15.471Z,5.88
2017-02-05T07:16:15.444Z,5.86
2017-02-05T07:17:15.430Z,5.85
2017-02-05T07:18:15.417Z,5.81
2017-02-05T07:19:15.416Z,5.82
2017-02-05T07:20:14.970Z,5.86
2017-02-05T07:21:14.949Z,5.91
2017-02-05T07:22:15.328Z,5.89
2017-02-05T07:23:15.311Z,5.88
2017-02-05T07:24:15.303Z,5.86
2017-02-05T07:25:15.269Z,5.83
2017-02-05T07:26:15.257Z,5.88
2017-02-05T07:27:15.235Z,5.86
2017-02-05T07:28:15.218Z,5.95
2017-02-05T07:29:14.803Z,5.86
2017-02-05T07:30:15.178Z,5.96
2017-02-05T07:31:15.159Z,5.89
2017-02-05T07:32:15.161Z,5.98
2017-02-05T07:33:15.121Z,5.91
2017-02-05T07:34:15.100Z,5.91
2017-02-05T07:35:15.082Z,6
2017-02-05T07:36:15.066Z,5.98
2017-02-05T07:37:15.046Z,5.96
2017-02-05T07:38:15.028Z,5.95
2017-02-05T07:39:15.004Z,5.98
2017-02-05T07:40:14.986Z,5.88
2017-02-05T07:41:14.971Z,5.98
2017-02-05T07:42:14.953Z,5.93
2017-02-05T07:43:14.938Z,5.93
2017-02-05T07:44:14.914Z,5.93
2017-02-05T07:45:14.894Z,5.92
2017-02-05T07:46:14.880Z,5.98
2017-02-05T07:47:14.861Z,5.89
2017-02-05T07:48:14.441Z,5.93
2017-02-05T07:49:14.874Z,5.98
2017-02-05T07:50:14.808Z,5.89
2017-02-05T07:51:14.780Z,5.96
2017-02-05T07:52:14.762Z,5.93
2017-02-05T07:53:14.743Z,6.01
2017-02-05T07:54:14.725Z,5.92
2017-02-05T07:55:14.707Z,6.01
2017-02-05T07:56:14.689Z,5.98
2017-02-05T07:57:14.669Z,6.03
2017-02-05T07:58:14.652Z,5.93
2017-02-05T07:59:14.632Z,5.86
2017-02-05T08:00:14.608Z,6.01
2017-02-05T08:01:14.591Z,5.93
2017-02-05T08:02:14.574Z,6.03
2017-02-05T08:03:14.159Z,6
2017-02-05T08:04:14.139Z,5.88
2017-02-05T08:05:14.523Z,5.91
2017-02-05T08:06:14.502Z,5.88
2017-02-05T08:07:14.478Z,5.95
2017-02-05T08:08:14.474Z,5.91
2017-02-05T08:09:14.058Z,6.04
2017-02-05T08:10:14.428Z,5.89
2017-02-05T08:11:14.014Z,6.09
2017-02-05T08:12:14.385Z,5.98
2017-02-05T08:13:14.569Z,5.92
2017-02-05T08:14:14.354Z,6.03
2017-02-05T08:15:14.333Z,6.03
2017-02-05T08:16:14.317Z,5.98
2017-02-05T08:17:14.315Z,6.09
2017-02-05T08:18:14.273Z,6.07
2017-02-05T08:19:13.860Z,6.01
2017-02-05T08:20:14.304Z,6.01
2017-02-05T08:21:14.227Z,6.04
2017-02-05T08:22:14.205Z,6.09
2017-02-05T08:23:14.189Z,6.11
2017-02-05T08:24:14.203Z,6.07
2017-02-05T08:25:14.155Z,6.11
2017-02-05T08:26:14.128Z,6.13
2017-02-05T08:27:14.107Z,6.09
2017-02-05T08:28:14.095Z,6.1
2017-02-05T08:29:14.069Z,6.21
2017-02-05T08:30:14.079Z,6.13
2017-02-05T08:31:14.037Z,6.13
2017-02-05T08:32:13.619Z,6.19
2017-02-05T08:33:13.998Z,6.21
2017-02-05T08:34:13.584Z,6.16
2017-02-05T08:35:14.086Z,6.22
2017-02-05T08:36:13.556Z,6.22
2017-02-05T08:37:13.946Z,6.19
2017-02-05T08:38:13.910Z,6.26
2017-02-05T08:39:13.887Z,6.21
2017-02-05T08:40:13.875Z,6.28
2017-02-05T08:41:13.918Z,6.29
2017-02-05T08:42:13.832Z,6.3
2017-02-05T08:43:13.421Z,6.25
2017-02-05T08:44:13.794Z,6.32
2017-02-05T08:45:13.381Z,6.28
2017-02-05T08:46:13.760Z,6.32
2017-02-05T08:47:13.743Z,6.33
2017-02-05T08:48:13.735Z,6.28
2017-02-05T08:49:13.708Z,6.38
2017-02-05T08:50:13.696Z,6.35
2017-02-05T08:51:13.668Z,6.32
2017-02-05T08:52:13.656Z,6.32
2017-02-05T08:53:13.645Z,6.4
2017-02-05T08:54:13.611Z,6.36
2017-02-05T08:55:13.599Z,6.43
2017-02-05T08:56:13.578Z,6.44
2017-02-05T08:57:13.173Z,6.46
2017-02-05T08:58:13.182Z,6.53
2017-02-05T08:59:13.523Z,6.53
2017-02-05T09:00:13.518Z,6.56
2017-02-05T09:01:13.514Z,6.51
2017-02-05T09:02:13.498Z,6.46
2017-02-05T09:03:13.473Z,6.59
2017-02-05T09:04:13.454Z,6.51
2017-02-05T09:05:13.035Z,6.66
2017-02-05T09:06:13.405Z,6.58
2017-02-05T09:07:13.393Z,6.58
2017-02-05T09:08:13.010Z,6.58
2017-02-05T09:09:13.348Z,6.65
2017-02-05T09:10:13.339Z,6.61
2017-02-05T09:11:13.320Z,6.66
2017-02-05T09:12:13.317Z,6.68
2017-02-05T09:13:12.882Z,6.69
2017-02-05T09:14:13.268Z,6.65
2017-02-05T09:15:12.846Z,6.68
2017-02-05T09:16:13.230Z,6.65
2017-02-05T09:17:13.206Z,6.62
2017-02-05T09:18:13.193Z,6.79
2017-02-05T09:19:12.774Z,6.71
2017-02-05T09:20:13.157Z,6.76
2017-02-05T09:21:13.141Z,6.86
2017-02-05T09:22:13.125Z,6.87
2017-02-05T09:23:12.707Z,6.86
2017-02-05T09:24:12.690Z,6.9
2017-02-05T09:25:13.075Z,6.84
2017-02-05T09:26:13.057Z,7.04
2017-02-05T09:27:13.039Z,6.98
2017-02-05T09:28:12.627Z,7.05
2017-02-05T09:29:12.641Z,7.01
2017-02-05T09:30:13.003Z,7.07
2017-02-05T09:31:12.975Z,7.16
2017-02-05T09:32:12.950Z,7.24
2017-02-05T09:33:12.944Z,7.15
2017-02-05T09:34:12.519Z,7.16
2017-02-05T09:35:12.903Z,7.16
2017-02-05T09:36:12.905Z,7.26
2017-02-05T09:37:12.860Z,7.23
2017-02-05T09:38:12.447Z,7.34
2017-02-05T09:39:12.834Z,7.34
2017-02-05T09:40:12.406Z,7.29
2017-02-05T09:41:12.799Z,7.31
2017-02-05T09:42:12.772Z,7.38
2017-02-05T09:43:12.754Z,7.37
2017-02-05T09:44:12.343Z,7.4
2017-02-05T09:45:12.736Z,7.44
2017-02-05T09:46:12.710Z,7.42
2017-02-05T09:47:12.702Z,7.44
2017-02-05T09:48:12.673Z,7.42
2017-02-05T09:49:12.652Z,7.37
2017-02-05T09:50:12.636Z,7.38
2017-02-05T09:51:12.234Z,7.37
2017-02-05T09:52:12.605Z,7.55
2017-02-05T09:53:12.595Z,7.45
2017-02-05T09:54:12.198Z,7.44
2017-02-05T09:55:12.568Z,7.45
2017-02-05T09:56:12.538Z,7.44
2017-02-05T09:57:12.127Z,7.53
2017-02-05T09:58:12.517Z,7.53
2017-02-05T09:59:12.502Z,7.58
2017-02-05T10:00:11.685Z,7.66
2017-02-05T10:01:12.464Z,7.71
2017-02-05T10:02:12.451Z,7.74
2017-02-05T10:03:12.558Z,7.78
2017-02-05T10:04:12.013Z,7.74
2017-02-05T10:05:12.405Z,7.84
2017-02-05T10:06:12.000Z,7.87
2017-02-05T10:07:12.385Z,7.85
2017-02-05T10:08:11.968Z,7.92
2017-02-05T10:09:12.341Z,8.02
2017-02-05T10:10:12.349Z,8.03
2017-02-05T10:11:12.306Z,7.97
2017-02-05T10:12:11.898Z,7.97
2017-02-05T10:13:12.498Z,7.97
2017-02-05T10:14:12.277Z,7.9
2017-02-05T10:15:11.848Z,7.78
2017-02-05T10:16:12.276Z,7.94
2017-02-05T10:17:12.215Z,8.03
2017-02-05T10:18:12.202Z,8.32
2017-02-05T10:19:12.185Z,8.54
2017-02-05T10:20:12.181Z,8.94
2017-02-05T10:21:12.153Z,9.13
2017-02-05T10:22:12.144Z,9.2
2017-02-05T10:23:12.117Z,9.25
2017-02-05T10:24:12.116Z,9.3
2017-02-05T10:25:11.698Z,9.21
2017-02-05T10:26:12.078Z,9.09
2017-02-05T10:27:12.057Z,9.18
2017-02-05T10:28:12.047Z,9.16
2017-02-05T10:29:11.630Z,9.23
2017-02-05T10:30:12.070Z,9.56
2017-02-05T10:31:11.615Z,9.68
2017-02-05T10:32:12.003Z,9.76
2017-02-05T10:33:11.989Z,9.82
2017-02-05T10:34:11.972Z,9.82
2017-02-05T10:35:11.957Z,9.83
2017-02-05T10:36:11.942Z,9.79
2017-02-05T10:37:11.923Z,9.79
2017-02-05T10:38:11.932Z,9.83
2017-02-05T10:39:11.914Z,9.7
2017-02-05T10:40:11.891Z,9.68
2017-02-05T10:41:11.495Z,10.04
2017-02-05T10:42:11.873Z,10.44
2017-02-05T10:43:11.855Z,11.01
2017-02-05T10:44:11.839Z,11.28
2017-02-05T10:45:11.829Z,11.65
2017-02-05T10:46:11.412Z,11.75
2017-02-05T10:47:11.806Z,11.68
2017-02-05T10:48:11.793Z,11.89
2017-02-05T10:49:11.772Z,12.16
2017-02-05T10:50:11.367Z,12.39
2017-02-05T10:51:11.779Z,12.57
2017-02-05T10:52:11.743Z,12.87
2017-02-05T10:53:11.734Z,13.21
2017-02-05T10:54:11.726Z,13.14
2017-02-05T10:55:11.714Z,13.36
2017-02-05T10:56:11.303Z,13.11
2017-02-05T10:57:11.683Z,13.11
2017-02-05T10:58:11.682Z,12.88
2017-02-05T10:59:11.269Z,12.99
2017-02-05T11:00:11.662Z,13.12
2017-02-05T11:01:11.645Z,13.25
2017-02-05T11:02:11.244Z,12.84
2017-02-05T11:03:11.699Z,12.92
2017-02-05T11:04:11.275Z,12.85
2017-02-05T11:05:11.619Z,12.78
2017-02-05T11:06:11.607Z,12.49
2017-02-05T11:07:11.601Z,12.21
2017-02-05T11:08:11.590Z,12.24
2017-02-05T11:09:11.576Z,12.12
2017-02-05T11:10:11.172Z,11.87
2017-02-05T11:11:11.163Z,11.75
2017-02-05T11:12:11.155Z,11.65
2017-02-05T11:13:11.545Z,11.56
2017-02-05T11:14:11.537Z,11.1
2017-02-05T11:15:11.576Z,10.99
2017-02-05T11:16:11.515Z,11.02
2017-02-05T11:17:11.506Z,11.01
2017-02-05T11:18:11.497Z,10.98
2017-02-05T11:19:11.490Z,10.91
2017-02-05T11:20:11.476Z,10.68
2017-02-05T11:21:11.466Z,10.68
2017-02-05T11:22:11.457Z,10.71
2017-02-05T11:23:11.447Z,10.96
2017-02-05T11:24:11.040Z,11.16
2017-02-05T11:25:11.458Z,11.35
2017-02-05T11:26:11.424Z,11.52
2017-02-05T11:27:11.414Z,11.72
2017-02-05T11:28:11.015Z,11.82
2017-02-05T11:29:11.389Z,11.85
2017-02-05T11:30:10.986Z,11.68
2017-02-05T11:31:11.421Z,11.56
2017-02-05T11:32:11.356Z,11.54
2017-02-05T11:33:11.351Z,11.52
2017-02-05T11:34:11.338Z,11.43
2017-02-05T11:35:11.327Z,11.54
2017-02-05T11:36:11.322Z,11.67
2017-02-05T11:37:11.319Z,11.77
2017-02-05T11:38:10.906Z,11.97
2017-02-05T11:39:11.289Z,12.11
2017-02-05T11:40:10.934Z,11.93
2017-02-05T11:41:11.273Z,12.05
2017-02-05T11:42:11.264Z,11.97
2017-02-05T11:43:11.261Z,11.75
2017-02-05T11:44:11.243Z,11.71
2017-02-05T11:45:11.287Z,11.82
2017-02-05T11:46:11.231Z,11.89
2017-02-05T11:47:10.425Z,11.9
2017-02-05T11:48:11.211Z,12.02
2017-02-05T11:49:10.799Z,12.27
2017-02-05T11:50:11.188Z,12.34
2017-02-05T11:51:11.178Z,12.41
2017-02-05T11:52:11.175Z,12.24
2017-02-05T11:53:11.192Z,12.2
2017-02-05T11:54:10.759Z,12.24
2017-02-05T11:55:10.750Z,12.2
2017-02-05T11:56:10.751Z,12.21
2017-02-05T11:57:11.138Z,12.08
2017-02-05T11:58:11.150Z,12.2
2017-02-05T11:59:10.718Z,12.24
2017-02-05T12:00:10.704Z,12.23
2017-02-05T12:01:11.087Z,12.23
2017-02-05T12:02:11.076Z,12.38
2017-02-05T12:03:11.068Z,12.27
2017-02-05T12:04:10.265Z,11.89
2017-02-05T12:05:10.652Z,11.82
2017-02-05T12:06:10.697Z,11.7
2017-02-05T12:07:10.637Z,11.64
2017-02-05T12:08:11.021Z,11.27
2017-02-05T12:09:11.016Z,11.25
2017-02-05T12:10:10.611Z,11.71
2017-02-05T12:11:11.001Z,12.08
2017-02-05T12:12:10.989Z,12.44
2017-02-05T12:13:11.383Z,12.75
2017-02-05T12:14:10.977Z,13.17
2017-02-05T12:15:10.964Z,13.58
2017-02-05T12:16:10.959Z,13.8
2017-02-05T12:17:10.953Z,13.99
2017-02-05T12:18:10.947Z,14.07
2017-02-05T12:19:10.939Z,14.14
2017-02-05T12:20:10.928Z,14.13
2017-02-05T12:21:10.927Z,14.2
2017-02-05T12:22:10.521Z,14.35
2017-02-05T12:23:10.912Z,14.5
2017-02-05T12:24:10.510Z,14.5
2017-02-05T12:25:10.540Z,14.6
2017-02-05T12:26:10.901Z,14.71
2017-02-05T12:27:10.493Z,14.95
2017-02-05T12:28:10.488Z,15.12
2017-02-05T12:29:10.486Z,15.23
2017-02-05T12:30:10.871Z,14.91
2017-02-05T12:31:10.474Z,14.71
2017-02-05T12:32:10.863Z,14.27
2017-02-05T12:33:10.863Z,13.95
2017-02-05T12:34:10.855Z,13.83
2017-02-05T12:35:10.467Z,13.71
2017-02-05T12:36:10.452Z,13.84
2017-02-05T12:37:10.435Z,13.94
2017-02-05T12:38:10.841Z,14.28
2017-02-05T12:39:10.437Z,14.52
2017-02-05T12:40:10.037Z,14.72
2017-02-05T12:41:10.822Z,14.93
2017-02-05T12:42:10.809Z,15.09
2017-02-05T12:43:10.807Z,15.39
2017-02-05T12:44:10.803Z,15.72
2017-02-05T12:45:10.816Z,15.96
2017-02-05T12:46:10.397Z,16.33
2017-02-05T12:47:10.397Z,16.62
2017-02-05T12:48:10.390Z,16.71
2017-02-05T12:49:10.391Z,16.88
2017-02-05T12:50:10.790Z,17.06
2017-02-05T12:51:10.788Z,16.86
2017-02-05T12:52:10.379Z,16.81
2017-02-05T12:53:10.767Z,16.62
2017-02-05T12:54:10.369Z,16.67
2017-02-05T12:55:10.765Z,16.73
2017-02-05T12:56:10.361Z,16.71
2017-02-05T12:57:10.754Z,16.83
2017-02-05T12:58:10.764Z,16.93
2017-02-05T12:59:10.747Z,16.9
2017-02-05T13:00:10.388Z,16.78
2017-02-05T13:01:10.742Z,16.71
2017-02-05T13:02:10.353Z,16.81
2017-02-05T13:03:10.732Z,16.83
2017-02-05T13:04:10.334Z,16.89
2017-02-05T13:05:10.728Z,17.18
2017-02-05T13:06:10.726Z,17.38
2017-02-05T13:07:10.715Z,17.38
2017-02-05T13:08:10.338Z,17.29
2017-02-05T13:09:10.722Z,17.32
2017-02-05T13:10:09.926Z,17.4
2017-02-05T13:11:10.712Z,17.33
2017-02-05T13:12:10.315Z,17.32
2017-02-05T13:13:10.308Z,17.43
2017-02-05T13:14:10.703Z,17.64
2017-02-05T13:15:10.298Z,17.55
2017-02-05T13:16:10.289Z,17.48